MET'MAP v2.0
soon released !

Expected late october,
this new version will be
more efficient, smarter,
and hosted on a brand new
server x3 powerfull...
...and still free !


Not compatible ?
Try the mobile version !

LOG IN : | Subscribe | Disclaimer | Who is Orbifly ? |
ICAO code :

TAF - DAAS 8 Mai 45 - 20 Feb 2020 12:32 UTC - Data Source NOAA   


- Airport Elevation : 3360 ft
- IATA code : QSF
- No reported NOTAMs.


DAAS - 8 Mai 45

Latest METAR recorded : 2015/08/11 08:00 DAAS 110800Z 24008KT CAVOK 24/14 Q1020
TAF TAF DAAS
Valid from the 20 at 06:00 until the 21 at 06:00 UTC


200500Z 2006/2106 16008KT 9999 FEW030
PROB40
TEMPO 2006/2009 VRB02KT 2000 BR BKN010
PROB30
TEMPO 2006/2008 0500 FG

Source NOAA


MET'MAP, your aeronautical weather chart ! - Copyright ORBIFLY December 2007

Programming & Development : Alexandra Zaïnal
Co-Developer : Marc-Olivier Méhu
Technical & hardware support : Manuel Goepfert
Concept & Financing : Baudouin d'Aumeries